Terminal Aerodrome Forecast
Issued by NWS

Home | Current Version | Previous Version | Text Only | Print | Product List | Glossary On
Versions: 1 2 3 4 5 6 7 8 9 10 11 12 13 14 15 16 17 18 19 20
000
FTUS43 KILX 020500
TAFDEC
TAF
KDEC 020523Z 0206/0306 22011KT 5SM -RA BR VCTS BKN035CB
     FM021000 VRB04KT 5SM BR BKN035
     FM021400 27006KT P6SM SCT030 BKN250
     FM030000 VRB03KT P6SM SCT250=

USA.gov is the U.S. government's official web portal to all federal, state and local government web resources and services.